sensor_id;sensor_type;location;lat;lon;timestamp;temperature;humidity
19862;DHT22;10093;48.148;8.542;2022-07-29T00:00:29;15.00;99.90
19862;DHT22;10093;48.148;8.542;2022-07-29T00:02:54;14.90;99.90
19862;DHT22;10093;48.148;8.542;2022-07-29T00:05:20;14.90;99.90
19862;DHT22;10093;48.148;8.542;2022-07-29T00:07:46;14.80;99.90
19862;DHT22;10093;48.148;8.542;2022-07-29T00:10:11;14.80;99.90
19862;DHT22;10093;48.148;8.542;2022-07-29T00:12:37;15.20;99.90
19862;DHT22;10093;48.148;8.542;2022-07-29T00:15:03;15.10;99.90
19862;DHT22;10093;48.148;8.542;2022-07-29T00:17:29;15.20;99.90
19862;DHT22;10093;48.148;8.542;2022-07-29T00:19:55;15.10;99.90
19862;DHT22;10093;48.148;8.542;2022-07-29T00:22:20;15.00;99.90
19862;DHT22;10093;48.148;8.542;2022-07-29T00:24:48;15.00;99.90
19862;DHT22;10093;48.148;8.542;2022-07-29T00:27:14;15.10;99.90
19862;DHT22;10093;48.148;8.542;2022-07-29T00:29:39;15.10;99.90
19862;DHT22;10093;48.148;8.542;2022-07-29T00:32:05;15.00;99.90
19862;DHT22;10093;48.148;8.542;2022-07-29T00:34:31;15.00;99.90
19862;DHT22;10093;48.148;8.542;2022-07-29T00:37:15;14.90;99.90
19862;DHT22;10093;48.148;8.542;2022-07-29T00:39:41;14.90;99.90
19862;DHT22;10093;48.148;8.542;2022-07-29T00:42:07;15.10;99.90
19862;DHT22;10093;48.148;8.542;2022-07-29T00:44:40;15.10;99.90
19862;DHT22;10093;48.148;8.542;2022-07-29T00:47:08;15.10;99.90
19862;DHT22;10093;48.148;8.542;2022-07-29T00:49:34;15.00;99.90
19862;DHT22;10093;48.148;8.542;2022-07-29T00:52:04;15.10;99.90
19862;DHT22;10093;48.148;8.542;2022-07-29T00:54:30;15.00;99.90
19862;DHT22;10093;48.148;8.542;2022-07-29T00:56:59;14.90;99.90
19862;DHT22;10093;48.148;8.542;2022-07-29T00:59:26;15.10;99.90
19862;DHT22;10093;48.148;8.542;2022-07-29T01:01:52;15.10;99.90
19862;DHT22;10093;48.148;8.542;2022-07-29T01:04:19;14.90;99.90
19862;DHT22;10093;48.148;8.542;2022-07-29T01:06:45;14.80;99.90
19862;DHT22;10093;48.148;8.542;2022-07-29T01:09:11;14.90;99.90
19862;DHT22;10093;48.148;8.542;2022-07-29T01:11:37;14.80;99.90
19862;DHT22;10093;48.148;8.542;2022-07-29T01:14:05;14.90;99.90
19862;DHT22;10093;48.148;8.542;2022-07-29T01:16:35;14.80;99.90
19862;DHT22;10093;48.148;8.542;2022-07-29T01:21:55;14.70;99.90
19862;DHT22;10093;48.148;8.542;2022-07-29T01:29:58;14.70;99.90
19862;DHT22;10093;48.148;8.542;2022-07-29T01:32:31;14.50;99.90
19862;DHT22;10093;48.148;8.542;2022-07-29T01:35:20;14.80;99.90
19862;DHT22;10093;48.148;8.542;2022-07-29T01:38:01;14.90;99.90
19862;DHT22;10093;48.148;8.542;2022-07-29T01:40:47;14.80;99.90
19862;DHT22;10093;48.148;8.542;2022-07-29T01:43:17;14.70;99.90
19862;DHT22;10093;48.148;8.542;2022-07-29T01:45:48;14.50;99.90
19862;DHT22;10093;48.148;8.542;2022-07-29T01:48:27;14.60;99.90
19862;DHT22;10093;48.148;8.542;2022-07-29T01:51:18;14.70;99.90
19862;DHT22;10093;48.148;8.542;2022-07-29T01:54:14;14.70;99.90
19862;DHT22;10093;48.148;8.542;2022-07-29T01:56:42;14.60;99.90
19862;DHT22;10093;48.148;8.542;2022-07-29T01:59:09;14.60;99.90
19862;DHT22;10093;48.148;8.542;2022-07-29T02:01:36;14.40;99.90
19862;DHT22;10093;48.148;8.542;2022-07-29T02:04:03;14.50;99.90
19862;DHT22;10093;48.148;8.542;2022-07-29T02:06:32;14.60;99.90
19862;DHT22;10093;48.148;8.542;2022-07-29T02:08:59;14.70;99.90
19862;DHT22;10093;48.148;8.542;2022-07-29T02:11:25;14.80;99.90
19862;DHT22;10093;48.148;8.542;2022-07-29T02:13:52;14.80;99.90
19862;DHT22;10093;48.148;8.542;2022-07-29T02:16:21;14.70;99.90
19862;DHT22;10093;48.148;8.542;2022-07-29T02:18:51;14.70;99.90
19862;DHT22;10093;48.148;8.542;2022-07-29T02:21:23;14.70;99.90
19862;DHT22;10093;48.148;8.542;2022-07-29T02:23:51;14.60;99.90
19862;DHT22;10093;48.148;8.542;2022-07-29T02:26:20;14.50;99.90
19862;DHT22;10093;48.148;8.542;2022-07-29T02:28:48;14.50;99.90
19862;DHT22;10093;48.148;8.542;2022-07-29T02:31:16;14.40;99.90
19862;DHT22;10093;48.148;8.542;2022-07-29T02:33:44;14.30;99.90
19862;DHT22;10093;48.148;8.542;2022-07-29T02:36:11;14.10;99.90
19862;DHT22;10093;48.148;8.542;2022-07-29T02:38:37;14.00;99.90
19862;DHT22;10093;48.148;8.542;2022-07-29T02:41:19;13.90;99.90
19862;DHT22;10093;48.148;8.542;2022-07-29T02:43:48;13.90;99.90
19862;DHT22;10093;48.148;8.542;2022-07-29T02:46:20;13.90;99.90
19862;DHT22;10093;48.148;8.542;2022-07-29T02:48:59;13.80;99.90
19862;DHT22;10093;48.148;8.542;2022-07-29T02:51:37;14.00;99.90
19862;DHT22;10093;48.148;8.542;2022-07-29T02:54:07;13.80;99.90
19862;DHT22;10093;48.148;8.542;2022-07-29T02:56:34;13.60;99.90
19862;DHT22;10093;48.148;8.542;2022-07-29T02:59:06;13.60;99.90
19862;DHT22;10093;48.148;8.542;2022-07-29T03:01:34;13.60;99.90
19862;DHT22;10093;48.148;8.542;2022-07-29T03:04:03;13.50;99.90
19862;DHT22;10093;48.148;8.542;2022-07-29T03:06:30;13.40;99.90
19862;DHT22;10093;48.148;8.542;2022-07-29T03:08:59;13.40;99.90
19862;DHT22;10093;48.148;8.542;2022-07-29T03:11:25;13.40;99.90
19862;DHT22;10093;48.148;8.542;2022-07-29T03:13:52;13.30;99.90
19862;DHT22;10093;48.148;8.542;2022-07-29T03:16:19;13.20;99.90
19862;DHT22;10093;48.148;8.542;2022-07-29T03:18:45;13.20;99.90
19862;DHT22;10093;48.148;8.542;2022-07-29T03:21:10;13.30;99.90
19862;DHT22;10093;48.148;8.542;2022-07-29T03:23:36;13.30;99.90
19862;DHT22;10093;48.148;8.542;2022-07-29T03:26:02;13.30;99.90
19862;DHT22;10093;48.148;8.542;2022-07-29T03:28:27;13.50;99.90
19862;DHT22;10093;48.148;8.542;2022-07-29T03:30:54;13.60;99.90
19862;DHT22;10093;48.148;8.542;2022-07-29T03:33:20;13.70;99.90
19862;DHT22;10093;48.148;8.542;2022-07-29T03:35:46;13.90;99.90
19862;DHT22;10093;48.148;8.542;2022-07-29T03:38:11;13.90;99.90
19862;DHT22;10093;48.148;8.542;2022-07-29T03:41:00;13.70;99.90
19862;DHT22;10093;48.148;8.542;2022-07-29T03:43:31;13.70;99.90
19862;DHT22;10093;48.148;8.542;2022-07-29T03:46:00;13.50;99.90
19862;DHT22;10093;48.148;8.542;2022-07-29T03:48:28;13.60;99.90
19862;DHT22;10093;48.148;8.542;2022-07-29T03:50:56;13.60;99.90
19862;DHT22;10093;48.148;8.542;2022-07-29T03:53:22;13.60;99.90
19862;DHT22;10093;48.148;8.542;2022-07-29T03:55:52;13.60;99.90
19862;DHT22;10093;48.148;8.542;2022-07-29T03:58:19;13.60;99.90
19862;DHT22;10093;48.148;8.542;2022-07-29T04:00:46;13.50;99.90
19862;DHT22;10093;48.148;8.542;2022-07-29T04:03:12;13.40;99.90
19862;DHT22;10093;48.148;8.542;2022-07-29T04:05:38;13.50;99.90
19862;DHT22;10093;48.148;8.542;2022-07-29T04:08:04;13.70;99.90
19862;DHT22;10093;48.148;8.542;2022-07-29T04:10:30;13.60;99.90
19862;DHT22;10093;48.148;8.542;2022-07-29T04:12:56;13.90;99.90
19862;DHT22;10093;48.148;8.542;2022-07-29T04:15:21;14.00;99.90
19862;DHT22;10093;48.148;8.542;2022-07-29T04:17:47;14.00;99.90
19862;DHT22;10093;48.148;8.542;2022-07-29T04:20:13;14.00;99.90
19862;DHT22;10093;48.148;8.542;2022-07-29T04:22:39;14.00;99.90
19862;DHT22;10093;48.148;8.542;2022-07-29T04:25:05;14.10;99.90
19862;DHT22;10093;48.148;8.542;2022-07-29T04:27:31;14.20;99.90
19862;DHT22;10093;48.148;8.542;2022-07-29T04:29:57;14.20;99.90
19862;DHT22;10093;48.148;8.542;2022-07-29T04:32:23;14.30;99.90
19862;DHT22;10093;48.148;8.542;2022-07-29T04:34:49;14.30;99.90
19862;DHT22;10093;48.148;8.542;2022-07-29T04:37:15;14.30;99.90
19862;DHT22;10093;48.148;8.542;2022-07-29T04:39:40;14.20;99.90
19862;DHT22;10093;48.148;8.542;2022-07-29T04:42:06;14.00;99.90
19862;DHT22;10093;48.148;8.542;2022-07-29T04:44:31;13.70;99.90
19862;DHT22;10093;48.148;8.542;2022-07-29T04:46:57;13.50;99.90
19862;DHT22;10093;48.148;8.542;2022-07-29T04:49:23;13.50;99.90
19862;DHT22;10093;48.148;8.542;2022-07-29T04:51:48;13.60;99.90
19862;DHT22;10093;48.148;8.542;2022-07-29T04:54:14;13.80;99.90
19862;DHT22;10093;48.148;8.542;2022-07-29T04:56:40;14.10;99.90
19862;DHT22;10093;48.148;8.542;2022-07-29T04:59:06;14.50;99.90
19862;DHT22;10093;48.148;8.542;2022-07-29T05:01:32;14.90;99.90
19862;DHT22;10093;48.148;8.542;2022-07-29T05:03:58;15.10;99.90
19862;DHT22;10093;48.148;8.542;2022-07-29T05:06:23;15.20;99.90
19862;DHT22;10093;48.148;8.542;2022-07-29T05:08:49;15.40;99.90
19862;DHT22;10093;48.148;8.542;2022-07-29T05:11:15;15.50;99.90
19862;DHT22;10093;48.148;8.542;2022-07-29T05:13:40;15.50;99.90
19862;DHT22;10093;48.148;8.542;2022-07-29T05:16:07;15.60;99.90
19862;DHT22;10093;48.148;8.542;2022-07-29T05:18:33;15.50;99.90
19862;DHT22;10093;48.148;8.542;2022-07-29T05:20:59;15.60;99.90
19862;DHT22;10093;48.148;8.542;2022-07-29T05:23:24;15.60;99.90
19862;DHT22;10093;48.148;8.542;2022-07-29T05:25:50;15.70;99.90
19862;DHT22;10093;48.148;8.542;2022-07-29T05:28:15;16.00;99.90
19862;DHT22;10093;48.148;8.542;2022-07-29T05:30:41;16.30;99.90
19862;DHT22;10093;48.148;8.542;2022-07-29T05:33:07;16.60;99.90
19862;DHT22;10093;48.148;8.542;2022-07-29T05:35:33;16.90;99.90
19862;DHT22;10093;48.148;8.542;2022-07-29T05:38:00;17.40;99.90
19862;DHT22;10093;48.148;8.542;2022-07-29T05:40:26;18.70;99.90
19862;DHT22;10093;48.148;8.542;2022-07-29T05:42:51;19.20;99.90
19862;DHT22;10093;48.148;8.542;2022-07-29T05:45:17;19.00;99.90
19862;DHT22;10093;48.148;8.542;2022-07-29T05:47:42;19.40;99.90
19862;DHT22;10093;48.148;8.542;2022-07-29T05:50:08;19.30;99.90
19862;DHT22;10093;48.148;8.542;2022-07-29T05:52:34;19.30;99.90
19862;DHT22;10093;48.148;8.542;2022-07-29T05:55:00;19.40;99.90
19862;DHT22;10093;48.148;8.542;2022-07-29T05:57:29;19.30;99.90
19862;DHT22;10093;48.148;8.542;2022-07-29T05:59:55;18.70;99.90
19862;DHT22;10093;48.148;8.542;2022-07-29T06:02:20;18.60;99.90
19862;DHT22;10093;48.148;8.542;2022-07-29T06:04:46;18.70;99.90
19862;DHT22;10093;48.148;8.542;2022-07-29T06:07:11;18.80;99.90
19862;DHT22;10093;48.148;8.542;2022-07-29T06:09:37;18.90;99.90
19862;DHT22;10093;48.148;8.542;2022-07-29T06:12:03;19.00;99.90
19862;DHT22;10093;48.148;8.542;2022-07-29T06:14:29;19.20;99.90
19862;DHT22;10093;48.148;8.542;2022-07-29T06:16:55;20.00;99.90
19862;DHT22;10093;48.148;8.542;2022-07-29T06:19:21;20.40;99.90
19862;DHT22;10093;48.148;8.542;2022-07-29T06:21:47;21.00;99.90
19862;DHT22;10093;48.148;8.542;2022-07-29T06:24:14;21.70;99.90
19862;DHT22;10093;48.148;8.542;2022-07-29T06:26:40;21.60;99.90
19862;DHT22;10093;48.148;8.542;2022-07-29T06:29:07;21.90;99.90
19862;DHT22;10093;48.148;8.542;2022-07-29T06:31:33;22.30;99.90
19862;DHT22;10093;48.148;8.542;2022-07-29T06:33:59;22.40;99.90
19862;DHT22;10093;48.148;8.542;2022-07-29T06:36:25;23.20;99.90
19862;DHT22;10093;48.148;8.542;2022-07-29T06:38:50;23.70;99.90
19862;DHT22;10093;48.148;8.542;2022-07-29T06:41:16;23.80;99.90
19862;DHT22;10093;48.148;8.542;2022-07-29T06:43:43;23.70;99.90
19862;DHT22;10093;48.148;8.542;2022-07-29T06:46:14;23.40;99.90
19862;DHT22;10093;48.148;8.542;2022-07-29T06:48:41;23.20;99.90
19862;DHT22;10093;48.148;8.542;2022-07-29T06:51:07;23.20;99.90
19862;DHT22;10093;48.148;8.542;2022-07-29T06:53:34;23.10;99.90
19862;DHT22;10093;48.148;8.542;2022-07-29T06:56:01;23.40;99.90
19862;DHT22;10093;48.148;8.542;2022-07-29T06:58:28;23.70;99.90
19862;DHT22;10093;48.148;8.542;2022-07-29T07:00:54;24.40;99.90
19862;DHT22;10093;48.148;8.542;2022-07-29T07:03:19;25.20;99.90
19862;DHT22;10093;48.148;8.542;2022-07-29T07:05:46;26.40;99.90
19862;DHT22;10093;48.148;8.542;2022-07-29T07:08:12;26.60;99.90
19862;DHT22;10093;48.148;8.542;2022-07-29T07:10:38;26.80;99.90
19862;DHT22;10093;48.148;8.542;2022-07-29T07:13:04;26.70;99.90
19862;DHT22;10093;48.148;8.542;2022-07-29T07:15:30;26.50;99.90
19862;DHT22;10093;48.148;8.542;2022-07-29T07:17:56;26.30;99.90
19862;DHT22;10093;48.148;8.542;2022-07-29T07:20:22;26.30;99.90
19862;DHT22;10093;48.148;8.542;2022-07-29T07:22:48;26.40;99.90
19862;DHT22;10093;48.148;8.542;2022-07-29T07:25:14;25.70;99.90
19862;DHT22;10093;48.148;8.542;2022-07-29T07:27:40;25.50;99.90
19862;DHT22;10093;48.148;8.542;2022-07-29T07:30:06;25.20;99.90
19862;DHT22;10093;48.148;8.542;2022-07-29T07:32:33;25.20;99.90
19862;DHT22;10093;48.148;8.542;2022-07-29T07:34:59;26.50;99.90
19862;DHT22;10093;48.148;8.542;2022-07-29T07:37:25;28.00;99.90
19862;DHT22;10093;48.148;8.542;2022-07-29T07:39:52;28.40;99.90
19862;DHT22;10093;48.148;8.542;2022-07-29T07:42:18;28.70;99.90
19862;DHT22;10093;48.148;8.542;2022-07-29T07:44:44;29.50;99.90
19862;DHT22;10093;48.148;8.542;2022-07-29T07:47:11;30.90;99.90
19862;DHT22;10093;48.148;8.542;2022-07-29T07:49:37;32.20;99.90
19862;DHT22;10093;48.148;8.542;2022-07-29T07:52:04;31.80;99.90
19862;DHT22;10093;48.148;8.542;2022-07-29T07:54:29;32.30;99.90
19862;DHT22;10093;48.148;8.542;2022-07-29T07:56:56;35.00;99.90
19862;DHT22;10093;48.148;8.542;2022-07-29T07:59:22;36.90;99.90
19862;DHT22;10093;48.148;8.542;2022-07-29T08:01:48;36.50;99.90
19862;DHT22;10093;48.148;8.542;2022-07-29T08:04:14;34.20;99.90
19862;DHT22;10093;48.148;8.542;2022-07-29T08:06:39;32.70;99.90
19862;DHT22;10093;48.148;8.542;2022-07-29T08:09:05;30.60;99.90
19862;DHT22;10093;48.148;8.542;2022-07-29T08:11:31;28.60;99.90
19862;DHT22;10093;48.148;8.542;2022-07-29T08:13:57;27.40;99.90
19862;DHT22;10093;48.148;8.542;2022-07-29T08:16:23;26.70;99.90
19862;DHT22;10093;48.148;8.542;2022-07-29T08:18:50;26.50;99.90
19862;DHT22;10093;48.148;8.542;2022-07-29T08:21:17;26.60;99.90
19862;DHT22;10093;48.148;8.542;2022-07-29T08:23:45;27.00;99.90
19862;DHT22;10093;48.148;8.542;2022-07-29T08:26:13;27.70;99.90
19862;DHT22;10093;48.148;8.542;2022-07-29T08:28:40;27.70;99.90
19862;DHT22;10093;48.148;8.542;2022-07-29T08:31:06;28.00;99.90
19862;DHT22;10093;48.148;8.542;2022-07-29T08:33:32;27.60;99.90
19862;DHT22;10093;48.148;8.542;2022-07-29T08:35:58;25.90;99.90
19862;DHT22;10093;48.148;8.542;2022-07-29T08:38:24;24.70;99.90
19862;DHT22;10093;48.148;8.542;2022-07-29T08:40:52;25.90;99.90
19862;DHT22;10093;48.148;8.542;2022-07-29T08:43:18;26.10;99.90
19862;DHT22;10093;48.148;8.542;2022-07-29T08:45:49;26.00;99.90
19862;DHT22;10093;48.148;8.542;2022-07-29T08:48:20;25.80;99.90
19862;DHT22;10093;48.148;8.542;2022-07-29T08:50:47;25.60;99.90
19862;DHT22;10093;48.148;8.542;2022-07-29T08:53:16;25.40;99.90
19862;DHT22;10093;48.148;8.542;2022-07-29T08:55:47;25.40;99.90
19862;DHT22;10093;48.148;8.542;2022-07-29T08:58:14;25.40;99.90
19862;DHT22;10093;48.148;8.542;2022-07-29T09:00:45;26.00;99.90
19862;DHT22;10093;48.148;8.542;2022-07-29T09:03:16;25.70;99.90
19862;DHT22;10093;48.148;8.542;2022-07-29T09:05:44;24.90;99.90
19862;DHT22;10093;48.148;8.542;2022-07-29T09:08:11;24.50;99.90
19862;DHT22;10093;48.148;8.542;2022-07-29T09:10:37;24.20;99.90
19862;DHT22;10093;48.148;8.542;2022-07-29T09:13:03;24.10;99.90
19862;DHT22;10093;48.148;8.542;2022-07-29T09:15:28;24.10;99.90
19862;DHT22;10093;48.148;8.542;2022-07-29T09:17:54;24.30;99.90
19862;DHT22;10093;48.148;8.542;2022-07-29T09:20:22;24.70;99.90
19862;DHT22;10093;48.148;8.542;2022-07-29T09:22:49;24.50;99.90
19862;DHT22;10093;48.148;8.542;2022-07-29T09:25:35;24.30;99.90
19862;DHT22;10093;48.148;8.542;2022-07-29T09:28:15;24.30;99.90
19862;DHT22;10093;48.148;8.542;2022-07-29T09:30:58;24.20;99.90
19862;DHT22;10093;48.148;8.542;2022-07-29T09:33:31;24.10;99.90
19862;DHT22;10093;48.148;8.542;2022-07-29T09:36:05;23.90;99.90
19862;DHT22;10093;48.148;8.542;2022-07-29T09:38:32;23.50;99.90
19862;DHT22;10093;48.148;8.542;2022-07-29T09:41:00;23.50;99.90
19862;DHT22;10093;48.148;8.542;2022-07-29T09:43:27;23.80;99.90
19862;DHT22;10093;48.148;8.542;2022-07-29T09:45:52;23.70;99.90
19862;DHT22;10093;48.148;8.542;2022-07-29T09:48:23;23.70;99.90
19862;DHT22;10093;48.148;8.542;2022-07-29T09:50:50;23.70;99.90
19862;DHT22;10093;48.148;8.542;2022-07-29T09:53:32;23.70;99.90
19862;DHT22;10093;48.148;8.542;2022-07-29T09:55:58;23.90;99.90
19862;DHT22;10093;48.148;8.542;2022-07-29T09:58:24;24.00;99.90
19862;DHT22;10093;48.148;8.542;2022-07-29T10:00:52;24.40;99.90
19862;DHT22;10093;48.148;8.542;2022-07-29T10:03:18;24.50;99.90
19862;DHT22;10093;48.148;8.542;2022-07-29T10:05:45;24.10;99.90
19862;DHT22;10093;48.148;8.542;2022-07-29T10:08:11;23.90;99.90
19862;DHT22;10093;48.148;8.542;2022-07-29T10:10:42;23.80;99.90
19862;DHT22;10093;48.148;8.542;2022-07-29T10:13:12;23.70;99.90
19862;DHT22;10093;48.148;8.542;2022-07-29T10:15:40;23.30;99.90
19862;DHT22;10093;48.148;8.542;2022-07-29T10:18:07;23.30;99.90
19862;DHT22;10093;48.148;8.542;2022-07-29T10:20:34;23.30;99.90
19862;DHT22;10093;48.148;8.542;2022-07-29T10:23:00;23.70;99.90
19862;DHT22;10093;48.148;8.542;2022-07-29T10:25:26;24.20;99.90
19862;DHT22;10093;48.148;8.542;2022-07-29T10:27:52;24.90;99.90
19862;DHT22;10093;48.148;8.542;2022-07-29T10:30:19;25.30;99.90
19862;DHT22;10093;48.148;8.542;2022-07-29T10:39:11;25.80;99.90
19862;DHT22;10093;48.148;8.542;2022-07-29T10:42:02;26.30;99.90
19862;DHT22;10093;48.148;8.542;2022-07-29T10:44:32;26.20;99.90
19862;DHT22;10093;48.148;8.542;2022-07-29T10:46:58;27.00;99.90
19862;DHT22;10093;48.148;8.542;2022-07-29T10:49:26;27.50;99.90
19862;DHT22;10093;48.148;8.542;2022-07-29T10:57:29;28.00;99.90
19862;DHT22;10093;48.148;8.542;2022-07-29T11:04:59;27.90;99.90
19862;DHT22;10093;48.148;8.542;2022-07-29T11:07:26;28.60;99.90
19862;DHT22;10093;48.148;8.542;2022-07-29T11:15:08;29.90;99.90
19862;DHT22;10093;48.148;8.542;2022-07-29T11:23:00;27.80;99.90
19862;DHT22;10093;48.148;8.542;2022-07-29T11:25:26;27.60;99.90
19862;DHT22;10093;48.148;8.542;2022-07-29T11:27:54;28.40;99.90
19862;DHT22;10093;48.148;8.542;2022-07-29T11:30:52;28.80;99.90
19862;DHT22;10093;48.148;8.542;2022-07-29T11:33:33;29.20;99.90
19862;DHT22;10093;48.148;8.542;2022-07-29T11:36:09;28.80;99.90
19862;DHT22;10093;48.148;8.542;2022-07-29T11:38:36;28.40;99.90
19862;DHT22;10093;48.148;8.542;2022-07-29T11:43:55;28.40;99.90
19862;DHT22;10093;48.148;8.542;2022-07-29T11:46:49;28.20;99.90
19862;DHT22;10093;48.148;8.542;2022-07-29T11:49:26;28.20;99.90
19862;DHT22;10093;48.148;8.542;2022-07-29T11:51:53;28.20;99.90
19862;DHT22;10093;48.148;8.542;2022-07-29T11:54:33;28.30;99.90
19862;DHT22;10093;48.148;8.542;2022-07-29T11:56:59;28.30;99.90
19862;DHT22;10093;48.148;8.542;2022-07-29T11:59:25;28.00;99.90
19862;DHT22;10093;48.148;8.542;2022-07-29T12:01:53;27.80;99.90
19862;DHT22;10093;48.148;8.542;2022-07-29T12:04:19;28.00;99.90
19862;DHT22;10093;48.148;8.542;2022-07-29T12:06:52;27.60;99.90
19862;DHT22;10093;48.148;8.542;2022-07-29T12:09:19;27.20;99.90
19862;DHT22;10093;48.148;8.542;2022-07-29T12:11:45;27.00;99.90
19862;DHT22;10093;48.148;8.542;2022-07-29T12:14:28;26.70;99.90
19862;DHT22;10093;48.148;8.542;2022-07-29T12:16:54;26.30;99.90
19862;DHT22;10093;48.148;8.542;2022-07-29T12:19:19;26.10;99.90
19862;DHT22;10093;48.148;8.542;2022-07-29T12:21:50;26.10;99.90
19862;DHT22;10093;48.148;8.542;2022-07-29T12:24:17;26.20;99.90
19862;DHT22;10093;48.148;8.542;2022-07-29T12:26:54;26.40;99.90
19862;DHT22;10093;48.148;8.542;2022-07-29T12:29:21;26.90;99.90
19862;DHT22;10093;48.148;8.542;2022-07-29T12:31:51;27.30;99.90
19862;DHT22;10093;48.148;8.542;2022-07-29T12:34:20;27.10;99.90
19862;DHT22;10093;48.148;8.542;2022-07-29T12:36:48;27.20;99.90
19862;DHT22;10093;48.148;8.542;2022-07-29T12:39:16;27.30;99.90
19862;DHT22;10093;48.148;8.542;2022-07-29T12:41:41;27.30;99.90
19862;DHT22;10093;48.148;8.542;2022-07-29T12:44:07;26.60;99.90
19862;DHT22;10093;48.148;8.542;2022-07-29T12:46:33;26.60;99.90
19862;DHT22;10093;48.148;8.542;2022-07-29T12:48:58;26.60;99.90
19862;DHT22;10093;48.148;8.542;2022-07-29T12:51:38;26.70;99.90
19862;DHT22;10093;48.148;8.542;2022-07-29T12:54:09;27.10;99.90
19862;DHT22;10093;48.148;8.542;2022-07-29T12:56:39;27.20;99.90
19862;DHT22;10093;48.148;8.542;2022-07-29T12:59:20;27.40;99.90
19862;DHT22;10093;48.148;8.542;2022-07-29T13:01:47;27.60;99.90
19862;DHT22;10093;48.148;8.542;2022-07-29T13:04:33;27.50;99.90
19862;DHT22;10093;48.148;8.542;2022-07-29T13:07:07;27.20;99.90
19862;DHT22;10093;48.148;8.542;2022-07-29T13:12:08;27.50;99.90
19862;DHT22;10093;48.148;8.542;2022-07-29T13:14:43;27.90;99.90
19862;DHT22;10093;48.148;8.542;2022-07-29T13:17:11;27.70;99.90
19862;DHT22;10093;48.148;8.542;2022-07-29T13:22:07;27.30;99.90
19862;DHT22;10093;48.148;8.542;2022-07-29T13:24:33;27.00;99.90
19862;DHT22;10093;48.148;8.542;2022-07-29T13:26:59;27.00;99.90
19862;DHT22;10093;48.148;8.542;2022-07-29T13:29:24;27.00;99.90
19862;DHT22;10093;48.148;8.542;2022-07-29T13:31:52;26.30;99.90
19862;DHT22;10093;48.148;8.542;2022-07-29T13:34:17;26.00;99.90
19862;DHT22;10093;48.148;8.542;2022-07-29T13:36:45;25.60;99.90
19862;DHT22;10093;48.148;8.542;2022-07-29T13:39:10;25.40;99.90
19862;DHT22;10093;48.148;8.542;2022-07-29T13:41:36;25.40;99.90
19862;DHT22;10093;48.148;8.542;2022-07-29T13:44:02;25.10;99.90
19862;DHT22;10093;48.148;8.542;2022-07-29T13:46:28;24.90;99.90
19862;DHT22;10093;48.148;8.542;2022-07-29T13:48:53;25.00;99.90
19862;DHT22;10093;48.148;8.542;2022-07-29T13:51:19;24.90;99.90
19862;DHT22;10093;48.148;8.542;2022-07-29T13:53:45;24.90;99.90
19862;DHT22;10093;48.148;8.542;2022-07-29T13:56:10;24.70;99.90
19862;DHT22;10093;48.148;8.542;2022-07-29T13:58:36;24.60;99.90
19862;DHT22;10093;48.148;8.542;2022-07-29T14:01:02;24.50;99.90
19862;DHT22;10093;48.148;8.542;2022-07-29T14:03:28;24.40;99.90
19862;DHT22;10093;48.148;8.542;2022-07-29T14:05:54;24.60;99.90
19862;DHT22;10093;48.148;8.542;2022-07-29T14:08:19;24.70;99.90
19862;DHT22;10093;48.148;8.542;2022-07-29T14:10:45;24.30;99.90
19862;DHT22;10093;48.148;8.542;2022-07-29T14:13:10;24.40;99.90
19862;DHT22;10093;48.148;8.542;2022-07-29T14:15:36;24.50;99.90
19862;DHT22;10093;48.148;8.542;2022-07-29T14:18:02;24.60;99.90
19862;DHT22;10093;48.148;8.542;2022-07-29T14:20:27;24.60;99.90
19862;DHT22;10093;48.148;8.542;2022-07-29T14:22:56;24.50;99.90
19862;DHT22;10093;48.148;8.542;2022-07-29T14:25:22;24.50;99.90
19862;DHT22;10093;48.148;8.542;2022-07-29T14:27:48;24.40;99.90
19862;DHT22;10093;48.148;8.542;2022-07-29T14:30:14;24.50;99.90
19862;DHT22;10093;48.148;8.542;2022-07-29T14:32:39;24.60;99.90
19862;DHT22;10093;48.148;8.542;2022-07-29T14:35:06;24.70;99.90
19862;DHT22;10093;48.148;8.542;2022-07-29T14:37:32;24.80;99.90
19862;DHT22;10093;48.148;8.542;2022-07-29T14:39:57;24.80;99.90
19862;DHT22;10093;48.148;8.542;2022-07-29T14:42:27;24.60;99.90
19862;DHT22;10093;48.148;8.542;2022-07-29T14:44:52;24.70;99.90
19862;DHT22;10093;48.148;8.542;2022-07-29T14:47:18;24.70;99.90
19862;DHT22;10093;48.148;8.542;2022-07-29T14:49:44;24.70;99.90
19862;DHT22;10093;48.148;8.542;2022-07-29T14:52:10;24.70;99.90
19862;DHT22;10093;48.148;8.542;2022-07-29T14:54:36;24.80;99.90
19862;DHT22;10093;48.148;8.542;2022-07-29T14:57:01;24.90;99.90
19862;DHT22;10093;48.148;8.542;2022-07-29T14:59:27;24.90;99.90
19862;DHT22;10093;48.148;8.542;2022-07-29T15:01:53;25.00;99.90
19862;DHT22;10093;48.148;8.542;2022-07-29T15:04:19;24.70;99.90
19862;DHT22;10093;48.148;8.542;2022-07-29T15:06:45;24.80;99.90
19862;DHT22;10093;48.148;8.542;2022-07-29T15:09:10;24.90;99.90
19862;DHT22;10093;48.148;8.542;2022-07-29T15:11:36;24.80;99.90
19862;DHT22;10093;48.148;8.542;2022-07-29T15:14:02;24.70;99.90
19862;DHT22;10093;48.148;8.542;2022-07-29T15:16:27;24.60;99.90
19862;DHT22;10093;48.148;8.542;2022-07-29T15:18:53;24.40;99.90
19862;DHT22;10093;48.148;8.542;2022-07-29T15:21:19;24.70;99.90
19862;DHT22;10093;48.148;8.542;2022-07-29T15:23:44;24.90;99.90
19862;DHT22;10093;48.148;8.542;2022-07-29T15:26:10;25.00;99.90
19862;DHT22;10093;48.148;8.542;2022-07-29T15:28:35;25.00;99.90
19862;DHT22;10093;48.148;8.542;2022-07-29T15:31:01;25.00;99.90
19862;DHT22;10093;48.148;8.542;2022-07-29T15:33:27;24.90;99.90
19862;DHT22;10093;48.148;8.542;2022-07-29T15:35:52;24.70;99.90
19862;DHT22;10093;48.148;8.542;2022-07-29T15:38:18;24.70;99.90
19862;DHT22;10093;48.148;8.542;2022-07-29T15:40:44;24.80;99.90
19862;DHT22;10093;48.148;8.542;2022-07-29T15:43:10;25.00;99.90
19862;DHT22;10093;48.148;8.542;2022-07-29T15:45:41;25.10;99.90
19862;DHT22;10093;48.148;8.542;2022-07-29T15:48:08;25.20;99.90
19862;DHT22;10093;48.148;8.542;2022-07-29T15:50:34;25.20;99.90
19862;DHT22;10093;48.148;8.542;2022-07-29T15:53:00;25.30;99.90
19862;DHT22;10093;48.148;8.542;2022-07-29T15:55:26;25.20;99.90
19862;DHT22;10093;48.148;8.542;2022-07-29T15:57:52;24.90;99.90
19862;DHT22;10093;48.148;8.542;2022-07-29T16:00:17;24.70;99.90
19862;DHT22;10093;48.148;8.542;2022-07-29T16:02:44;24.70;99.90
19862;DHT22;10093;48.148;8.542;2022-07-29T16:05:09;24.60;99.90
19862;DHT22;10093;48.148;8.542;2022-07-29T16:07:35;24.60;99.90
19862;DHT22;10093;48.148;8.542;2022-07-29T16:10:02;24.70;99.90
19862;DHT22;10093;48.148;8.542;2022-07-29T16:12:28;24.60;99.90
19862;DHT22;10093;48.148;8.542;2022-07-29T16:14:54;24.60;99.90
19862;DHT22;10093;48.148;8.542;2022-07-29T16:17:19;24.60;99.90